createdAt,value
2023-05-17T00:04:30.422Z,86
2023-05-17T00:09:36.544Z,86
2023-05-17T00:14:42.514Z,86.5
2023-05-17T00:19:48.672Z,86.5
2023-05-17T00:24:54.706Z,86
2023-05-17T00:30:00.843Z,87
2023-05-17T00:35:05.986Z,87
2023-05-17T00:40:12.024Z,87
2023-05-17T00:45:18.123Z,88
2023-05-17T00:50:24.222Z,89.5
2023-05-17T00:55:30.326Z,91.5
2023-05-17T01:00:36.433Z,92.5
2023-05-17T01:05:42.615Z,93.5
2023-05-17T01:10:48.623Z,94.5
2023-05-17T01:15:54.702Z,95
2023-05-17T01:21:00.867Z,95.5
2023-05-17T01:26:06.961Z,96
2023-05-17T01:31:12.993Z,96
2023-05-17T01:36:19.092Z,96
2023-05-17T01:41:24.294Z,97
2023-05-17T01:46:30.303Z,97
2023-05-17T01:51:36.422Z,97.5
2023-05-17T01:56:42.502Z,98
2023-05-17T02:01:48.586Z,98
2023-05-17T02:06:54.687Z,98.5
2023-05-17T02:12:00.788Z,98.5
2023-05-17T02:17:06.911Z,99
2023-05-17T02:22:12.985Z,99.5
2023-05-17T02:27:19.098Z,99.5
2023-05-17T02:32:25.197Z,99.5
2023-05-17T02:37:31.276Z,99.5
2023-05-17T02:42:37.404Z,99.5
2023-05-17T02:47:42.485Z,99.5
2023-05-17T02:52:48.578Z,99.5
2023-05-17T02:57:54.687Z,99.5
2023-05-17T03:03:00.792Z,99.5
2023-05-17T03:08:06.885Z,99.5
2023-05-17T03:13:12.978Z,99.5
2023-05-17T03:18:19.079Z,99.5
2023-05-17T03:23:25.177Z,99.5
2023-05-17T03:28:31.290Z,99.5
2023-05-17T03:33:37.372Z,99
2023-05-17T03:38:43.468Z,99
2023-05-17T03:43:49.617Z,98.5
2023-05-17T03:48:55.690Z,98.5
2023-05-17T03:54:00.842Z,98.5
2023-05-17T03:59:06.875Z,98.5
2023-05-17T04:04:12.960Z,99
2023-05-17T04:09:19.079Z,99
2023-05-17T04:14:25.243Z,99.5
2023-05-17T04:19:31.335Z,99.5
2023-05-17T04:24:37.353Z,99.5
2023-05-17T04:29:43.471Z,99.5
2023-05-17T04:34:49.550Z,99
2023-05-17T04:39:55.658Z,98.5
2023-05-17T04:45:01.745Z,98
2023-05-17T04:50:07.842Z,98.5
2023-05-17T04:55:13.934Z,98
2023-05-17T05:00:19.072Z,98
2023-05-17T05:05:25.148Z,97.5
2023-05-17T05:10:31.249Z,97.5
2023-05-17T05:15:37.346Z,97
2023-05-17T05:20:43.446Z,95
2023-05-17T05:25:49.551Z,93.5
2023-05-17T05:30:55.637Z,92.5
2023-05-17T05:36:01.741Z,91
2023-05-17T05:41:07.836Z,91.5
2023-05-17T05:46:13.981Z,91
2023-05-17T05:51:20.036Z,90
2023-05-17T05:56:26.121Z,88.5
2023-05-17T06:01:32.216Z,87.5
2023-05-17T06:06:37.351Z,86
2023-05-17T06:11:43.437Z,84.5
2023-05-17T06:16:49.529Z,85
2023-05-17T06:21:55.727Z,82.5
2023-05-17T06:27:01.713Z,80.5
2023-05-17T06:32:07.828Z,78
2023-05-17T06:37:13.918Z,76
2023-05-17T06:42:20.006Z,77.5
2023-05-17T06:47:26.121Z,75.5
2023-05-17T06:52:32.210Z,76
2023-05-17T06:57:38.309Z,73
2023-05-17T07:02:44.396Z,72.5
2023-05-17T07:07:50.489Z,72
2023-05-17T07:12:55.647Z,72.5
2023-05-17T07:18:01.796Z,71
2023-05-17T07:23:07.794Z,68.5
2023-05-17T07:28:13.884Z,71
2023-05-17T07:33:19.988Z,67.5
2023-05-17T07:38:26.097Z,70
2023-05-17T07:43:32.296Z,70.5
2023-05-17T07:48:38.275Z,72.5
2023-05-17T07:53:44.394Z,70
2023-05-17T07:58:50.479Z,69
2023-05-17T08:03:56.571Z,69.5
2023-05-17T08:09:02.668Z,70
2023-05-17T08:14:08.879Z,66
2023-05-17T08:19:13.884Z,64
2023-05-17T08:24:20.049Z,65
2023-05-17T08:29:26.087Z,61
2023-05-17T08:34:32.249Z,63
2023-05-17T08:39:38.318Z,61
2023-05-17T08:44:44.440Z,63.5
2023-05-17T08:49:50.452Z,64
2023-05-17T08:54:56.551Z,62.5
2023-05-17T09:00:02.692Z,61.5
2023-05-17T09:05:08.755Z,63.5
2023-05-17T09:10:14.837Z,60
2023-05-17T09:15:25.208Z,61
2023-05-17T09:20:27.027Z,57.5
2023-05-17T09:25:32.156Z,58
2023-05-17T09:30:38.327Z,58
2023-05-17T09:35:44.333Z,59
2023-05-17T09:40:50.424Z,58.5
2023-05-17T09:45:56.642Z,52.5
2023-05-17T09:51:02.631Z,56.5
2023-05-17T09:56:08.859Z,57.5
2023-05-17T10:01:14.813Z,58.5
2023-05-17T10:06:20.920Z,54
2023-05-17T10:16:33.121Z,56.5
2023-05-17T10:21:39.211Z,57.5
2023-05-17T10:26:45.341Z,51
2023-05-17T10:31:50.421Z,48.5
2023-05-17T10:36:56.630Z,53.5
2023-05-17T10:42:02.663Z,52
2023-05-17T10:47:08.762Z,50
2023-05-17T10:52:14.930Z,52.5
2023-05-17T10:57:21.010Z,45.5
2023-05-17T11:02:27.043Z,45.5
2023-05-17T11:07:33.093Z,49
2023-05-17T11:12:39.298Z,51
2023-05-17T11:17:45.405Z,46.5
2023-05-17T11:22:51.377Z,50.5
2023-05-17T11:27:57.491Z,52
2023-05-17T11:33:03.575Z,50
2023-05-17T11:38:08.676Z,48
2023-05-17T11:43:14.776Z,43
2023-05-17T11:48:20.868Z,46
2023-05-17T11:53:26.980Z,50.5
2023-05-17T11:58:33.061Z,49.5
2023-05-17T12:03:39.189Z,51.5
2023-05-17T12:08:45.277Z,43.5
2023-05-17T12:13:51.367Z,46.5
2023-05-17T12:18:57.445Z,48
2023-05-17T12:24:03.521Z,43.5
2023-05-17T12:29:09.626Z,44
2023-05-17T12:34:15.712Z,40.5
2023-05-17T12:39:21.804Z,41.5
2023-05-17T12:44:27.096Z,36.5
2023-05-17T12:49:33.056Z,38
2023-05-17T12:54:39.184Z,37
2023-05-17T13:04:51.302Z,37
2023-05-17T13:09:57.492Z,38
2023-05-17T13:15:03.628Z,44
2023-05-17T13:20:09.767Z,42
2023-05-17T13:25:15.683Z,40
2023-05-17T13:30:21.949Z,37
2023-05-17T13:35:28.099Z,43
2023-05-17T13:40:34.138Z,47.5
2023-05-17T13:45:40.300Z,46
2023-05-17T13:50:45.332Z,43
2023-05-17T13:55:51.320Z,46.5
2023-05-17T14:00:57.427Z,44
2023-05-17T14:06:03.469Z,43.5
2023-05-17T14:11:09.567Z,41.5
2023-05-17T14:16:15.658Z,42.5
2023-05-17T14:21:21.768Z,43.5
2023-05-17T14:26:27.848Z,38
2023-05-17T14:31:34.016Z,41
2023-05-17T14:36:40.048Z,39.5
2023-05-17T14:41:46.189Z,48.5
2023-05-17T14:46:52.348Z,46.5
2023-05-17T14:51:58.326Z,47.5
2023-05-17T14:57:03.453Z,45.5
2023-05-17T15:07:15.634Z,45
2023-05-17T15:12:21.737Z,46
2023-05-17T15:17:27.828Z,47
2023-05-17T15:22:33.915Z,45
2023-05-17T15:27:39.042Z,48
2023-05-17T15:32:45.283Z,44.5
2023-05-17T15:37:51.248Z,48.5
2023-05-17T15:42:57.331Z,45.5
2023-05-17T15:48:03.428Z,44.5
2023-05-17T15:53:09.523Z,45.5
2023-05-17T15:58:15.611Z,45
2023-05-17T16:03:21.734Z,48.5
2023-05-17T16:08:27.942Z,45.5
2023-05-17T16:13:33.914Z,44.5
2023-05-17T16:18:40.005Z,47
2023-05-17T16:23:46.092Z,45.5
2023-05-17T16:28:52.178Z,43.5
2023-05-17T16:33:57.305Z,44
2023-05-17T16:39:03.447Z,45.5
2023-05-17T16:44:09.480Z,40.5
2023-05-17T16:49:15.602Z,37
2023-05-17T16:54:21.707Z,35.5
2023-05-17T16:59:27.771Z,35
2023-05-17T17:04:33.881Z,34
2023-05-17T17:09:39.981Z,38
2023-05-17T17:19:52.190Z,37.5
2023-05-17T17:24:58.256Z,36.5
2023-05-17T17:30:04.339Z,36.5
2023-05-17T17:35:10.460Z,37
2023-05-17T17:40:15.578Z,38.5
2023-05-17T17:45:21.672Z,39
2023-05-17T17:50:27.784Z,42
2023-05-17T17:55:33.862Z,41
2023-05-17T18:00:39.944Z,46
2023-05-17T18:05:46.059Z,47
2023-05-17T18:10:52.146Z,49
2023-05-17T18:15:58.233Z,50.5
2023-05-17T18:21:04.325Z,52
2023-05-17T18:26:10.426Z,52.5
2023-05-17T18:31:16.536Z,54
2023-05-17T18:36:22.610Z,54.5
2023-05-17T18:41:28.733Z,55
2023-05-17T18:46:33.857Z,56
2023-05-17T18:51:39.931Z,56.5
2023-05-17T18:56:46.012Z,57.5
2023-05-17T19:01:52.106Z,58.5
2023-05-17T19:06:58.217Z,60
2023-05-17T19:12:04.308Z,60.5
2023-05-17T19:17:10.408Z,62.5
2023-05-17T19:22:16.506Z,65
2023-05-17T19:27:22.606Z,68.5
2023-05-17T19:32:28.706Z,70.5
2023-05-17T19:37:34.794Z,69.5
2023-05-17T19:42:40.893Z,72
2023-05-17T19:47:46.984Z,72
2023-05-17T19:52:52.095Z,73.5
2023-05-17T19:57:58.212Z,72.5
2023-05-17T20:03:04.329Z,73.5
2023-05-17T20:08:10.387Z,74
2023-05-17T20:13:16.483Z,75
2023-05-17T20:18:22.584Z,76.5
2023-05-17T20:23:28.669Z,78
2023-05-17T20:28:34.770Z,78.5
2023-05-17T20:33:40.917Z,80.5
2023-05-17T20:38:46.962Z,81.5
2023-05-17T20:43:53.065Z,81.5
2023-05-17T20:48:59.161Z,82
2023-05-17T20:54:05.274Z,82.5
2023-05-17T20:59:10.368Z,83.5
2023-05-17T21:04:16.476Z,82.5
2023-05-17T21:09:22.591Z,80
2023-05-17T21:14:28.843Z,78.5
2023-05-17T21:19:34.963Z,78.5
2023-05-17T21:24:41.014Z,80
2023-05-17T21:29:47.108Z,79.5
2023-05-17T21:34:53.211Z,79.5
2023-05-17T21:39:59.412Z,78.5
2023-05-17T21:45:05.456Z,78
2023-05-17T21:50:11.390Z,77
2023-05-17T21:55:17.584Z,76.5
2023-05-17T22:00:23.642Z,76.5
2023-05-17T22:05:28.671Z,77
2023-05-17T22:10:34.881Z,77.5
2023-05-17T22:15:40.923Z,77
2023-05-17T22:20:47.112Z,77.5
2023-05-17T22:25:53.193Z,78
2023-05-17T22:30:59.316Z,78.5
2023-05-17T22:36:05.436Z,78
2023-05-17T22:41:11.530Z,79
2023-05-17T22:46:17.441Z,78.5
2023-05-17T22:51:23.683Z,78
2023-05-17T22:56:29.852Z,78.5
2023-05-17T23:01:35.917Z,78.5
2023-05-17T23:06:42.014Z,78.5
2023-05-17T23:11:46.955Z,78.5
2023-05-17T23:16:53.050Z,79.5
2023-05-17T23:21:59.130Z,79
2023-05-17T23:27:05.222Z,79.5
2023-05-17T23:32:11.341Z,79
2023-05-17T23:37:17.436Z,79
2023-05-17T23:42:23.534Z,80
2023-05-17T23:47:29.620Z,80
2023-05-17T23:52:35.738Z,80.5
2023-05-17T23:57:41.827Z,81.5
